Time;durP1;ratioP1;P1;durP2;ratioP2;P2;SDS_P1;SDS_P2;PMS_P1;PMS_P2;Temp;Humidity;BMP_temperature;BMP_pressure;BME280_temperature;BME280_humidity;BME280_pressure;Samples;Min_cycle;Max_cycle;Signal;HPM_P1;HPM_P2
2022/07/26 00:01:46;;;;;;;761.77;559.03;;;21.30;1.00;;;;;;4937261;29;20674;-89
2022/07/26 00:04:13;;;;;;;763.73;561.67;;;21.30;1.00;;;;;;4937055;29;20208;-89
2022/07/26 00:06:41;;;;;;;767.27;565.20;;;21.40;1.00;;;;;;4936750;29;20227;-89
2022/07/26 00:09:08;;;;;;;768.87;572.23;;;21.40;1.00;;;;;;4937586;29;20205;-89
2022/07/26 00:11:35;;;;;;;769.63;567.10;;;21.40;1.00;;;;;;4937293;29;20204;-89
2022/07/26 00:14:08;;;;;;;761.27;567.67;;;21.40;1.00;;;;;;4937158;29;20205;-89
2022/07/26 00:16:37;;;;;;;760.67;558.67;;;21.30;1.00;;;;;;4937270;29;20646;-89
2022/07/26 00:19:06;;;;;;;767.80;579.33;;;21.40;1.00;;;;;;4937186;29;20205;-88
2022/07/26 00:21:33;;;;;;;764.40;566.67;;;21.30;1.00;;;;;;4935690;29;20192;-90
2022/07/26 00:24:00;;;;;;;765.00;568.87;;;21.30;1.00;;;;;;4937127;29;20211;-89
2022/07/26 00:26:27;;;;;;;766.77;565.10;;;21.30;99.90;;;;;;4936815;29;20225;-88
2022/07/26 00:28:54;;;;;;;760.83;557.50;;;21.30;99.90;;;;;;4936726;29;20197;-89
2022/07/26 00:31:23;;;;;;;765.83;570.93;;;21.30;99.90;;;;;;4936847;29;20228;-89
2022/07/26 00:33:50;;;;;;;764.43;564.27;;;21.30;99.90;;;;;;4936676;29;20201;-88
2022/07/26 00:36:17;;;;;;;763.80;561.90;;;21.30;99.90;;;;;;4936723;29;20232;-89
2022/07/26 00:38:44;;;;;;;770.13;570.70;;;21.20;99.90;;;;;;4936881;29;20566;-89
2022/07/26 00:41:12;;;;;;;773.20;574.87;;;21.20;99.90;;;;;;4936958;29;20205;-88
2022/07/26 00:43:54;;;;;;;763.97;558.33;;;21.10;99.90;;;;;;4936402;29;20252;-88
2022/07/26 00:46:21;;;;;;;767.63;556.67;;;21.10;1.00;;;;;;4923299;29;20186;-89
2022/07/26 00:48:49;;;;;;;771.20;555.53;;;21.10;1.00;;;;;;4937129;29;20232;-89
2022/07/26 00:51:17;;;;;;;765.90;552.83;;;21.00;1.00;;;;;;4936425;29;20208;-90
2022/07/26 00:53:46;;;;;;;765.03;554.60;;;21.00;1.00;;;;;;4936207;29;20578;-90
2022/07/26 00:56:14;;;;;;;766.40;561.53;;;21.00;1.00;;;;;;4936362;29;20197;-89
2022/07/26 00:58:41;;;;;;;767.57;564.97;;;21.00;1.00;;;;;;4936384;29;20205;-89
2022/07/26 01:01:09;;;;;;;765.70;556.50;;;21.00;1.00;;;;;;4936485;29;20305;-88
2022/07/26 01:03:36;;;;;;;767.27;565.03;;;21.00;1.00;;;;;;4935811;29;20658;-90
2022/07/26 01:06:05;;;;;;;763.70;548.53;;;20.90;1.00;;;;;;4935956;29;20647;-88
2022/07/26 01:08:33;;;;;;;764.13;552.50;;;20.90;1.00;;;;;;4936031;29;20225;-89
2022/07/26 01:11:00;;;;;;;767.47;557.00;;;20.90;1.00;;;;;;4936303;29;20193;-88
2022/07/26 01:13:27;;;;;;;766.90;559.17;;;20.90;99.90;;;;;;4936191;29;20201;-88
2022/07/26 01:15:54;;;;;;;766.93;552.77;;;20.90;1.00;;;;;;4936318;29;20382;-89
2022/07/26 01:18:21;;;;;;;770.37;571.83;;;20.80;99.90;;;;;;4935887;29;20353;-89
2022/07/26 01:20:50;;;;;;;772.50;567.07;;;20.80;99.90;;;;;;4936106;29;20239;-88
2022/07/26 01:23:19;;;;;;;766.00;556.20;;;20.80;99.90;;;;;;4934191;29;20199;-89
2022/07/26 01:25:46;;;;;;;766.03;550.47;;;20.80;99.90;;;;;;4935681;29;20685;-88
2022/07/26 01:28:13;;;;;;;769.10;557.23;;;20.80;99.90;;;;;;4936072;29;20221;-89
2022/07/26 01:30:40;;;;;;;767.93;560.13;;;20.70;99.90;;;;;;4936342;29;20555;-89
2022/07/26 01:33:07;;;;;;;766.97;552.77;;;20.70;99.90;;;;;;4935740;29;20231;-89
2022/07/26 01:35:34;;;;;;;763.00;549.30;;;20.60;99.90;;;;;;4936010;29;20209;-89
2022/07/26 01:38:02;;;;;;;765.07;553.23;;;20.60;1.00;;;;;;4922692;29;20202;-89
2022/07/26 01:40:30;;;;;;;765.47;551.67;;;20.50;1.00;;;;;;4935736;29;20574;-88
2022/07/26 01:42:58;;;;;;;758.90;548.50;;;20.50;1.00;;;;;;4935972;29;20204;-89
2022/07/26 01:45:25;;;;;;;760.57;538.20;;;20.40;1.00;;;;;;4935995;29;20219;-89
2022/07/26 01:47:52;;;;;;;758.20;533.20;;;20.40;1.00;;;;;;4935385;29;20232;-89
2022/07/26 01:50:19;;;;;;;761.73;536.67;;;20.30;1.00;;;;;;4935549;29;20197;-89
2022/07/26 01:52:46;;;;;;;760.37;537.30;;;20.20;99.90;;;;;;4935655;29;20209;-88
2022/07/26 01:55:13;;;;;;;765.13;541.47;;;20.20;99.90;;;;;;4935658;29;20204;-89
2022/07/26 01:57:46;;;;;;;763.03;538.53;;;20.10;99.90;;;;;;4935586;29;20285;-89
2022/07/26 02:00:14;;;;;;;765.10;549.03;;;20.00;99.90;;;;;;4923042;29;20720;-89
2022/07/26 02:02:41;;;;;;;762.77;537.50;;;19.90;99.90;;;;;;4935975;29;20208;-89
2022/07/26 02:05:10;;;;;;;751.47;524.17;;;19.80;99.90;;;;;;4936087;29;20215;-89
2022/07/26 02:07:39;;;;;;;749.87;521.63;;;19.80;1.00;;;;;;4935726;29;20217;-90
2022/07/26 02:10:08;;;;;;;741.60;502.37;;;19.70;1.00;;;;;;4935789;29;20671;-89
2022/07/26 02:12:35;;;;;;;733.00;485.97;;;19.60;1.00;;;;;;4935901;29;20216;-89
2022/07/26 02:15:06;;;;;;;742.37;510.73;;;19.50;1.00;;;;;;4935826;29;20714;-90
2022/07/26 02:17:33;;;;;;;739.67;489.50;;;19.50;1.00;;;;;;4935707;29;20255;-89
2022/07/26 02:20:01;;;;;;;747.10;498.00;;;19.50;1.00;;;;;;4935698;29;20236;-90
2022/07/26 02:22:28;;;;;;;741.80;500.37;;;19.50;1.00;;;;;;4935787;29;20205;-90
2022/07/26 02:24:55;;;;;;;735.97;484.47;;;19.40;99.90;;;;;;4935112;29;20252;-90
2022/07/26 02:27:22;;;;;;;735.63;494.67;;;19.30;1.00;;;;;;4935562;29;20227;-90
2022/07/26 02:29:50;;;;;;;734.30;487.30;;;19.30;99.90;;;;;;4936023;29;20225;-90
2022/07/26 02:32:19;;;;;;;738.10;477.27;;;19.20;1.00;;;;;;4935830;29;20304;-91
2022/07/26 02:34:46;;;;;;;727.17;476.67;;;19.10;1.00;;;;;;4936012;29;20228;-89
2022/07/26 02:37:13;;;;;;;725.93;472.30;;;19.00;99.90;;;;;;4935700;29;20209;-89
2022/07/26 02:39:40;;;;;;;721.47;459.43;;;19.00;1.00;;;;;;4928422;29;20217;-90
2022/07/26 02:42:08;;;;;;;741.13;476.27;;;18.90;99.90;;;;;;4929829;29;20201;-89
2022/07/26 02:44:35;;;;;;;745.20;482.23;;;18.80;99.90;;;;;;4935980;29;20209;-90
2022/07/26 02:47:03;;;;;;;745.90;488.33;;;18.80;99.90;;;;;;4938962;29;20658;-90
2022/07/26 02:49:31;;;;;;;744.03;489.53;;;18.80;99.90;;;;;;4939155;29;20205;-90
2022/07/26 02:51:59;;;;;;;736.73;460.80;;;18.80;99.90;;;;;;4939238;29;20233;-89
2022/07/26 02:54:26;;;;;;;738.10;471.23;;;18.70;55.10;;;;;;4939571;29;20208;-91
2022/07/26 02:56:53;;;;;;;727.97;458.27;;;18.80;1.00;;;;;;4939267;29;20205;-90
2022/07/26 02:59:21;;;;;;;722.47;443.53;;;18.70;90.80;;;;;;4939413;29;20212;-91
2022/07/26 03:01:48;;;;;;;736.77;473.23;;;18.70;1.00;;;;;;4939467;29;20208;-90
2022/07/26 03:04:15;;;;;;;718.53;442.37;;;18.70;1.00;;;;;;4939027;29;20222;-91
2022/07/26 03:06:44;;;;;;;739.43;473.67;;;18.70;1.00;;;;;;4939356;29;20594;-89
2022/07/26 03:09:11;;;;;;;739.77;473.67;;;18.70;1.00;;;;;;4938613;29;20225;-90
2022/07/26 03:11:38;;;;;;;736.47;471.77;;;18.70;1.00;;;;;;4938611;29;20295;-90
2022/07/26 03:14:06;;;;;;;731.37;464.33;;;18.70;6.10;;;;;;4939178;29;20263;-90
2022/07/26 03:16:33;;;;;;;722.07;454.83;;;18.70;1.00;;;;;;4938744;29;20635;-90
2022/07/26 03:19:01;;;;;;;717.10;437.33;;;18.70;1.00;;;;;;4938785;29;20642;-90
2022/07/26 03:21:28;;;;;;;715.63;424.00;;;18.70;1.00;;;;;;4938674;29;20235;-90
2022/07/26 03:23:57;;;;;;;731.13;460.53;;;18.70;1.00;;;;;;4938525;29;20263;-90
2022/07/26 03:26:25;;;;;;;733.03;461.07;;;18.70;1.00;;;;;;4938950;29;20205;-91
2022/07/26 03:28:52;;;;;;;743.00;481.53;;;18.70;1.00;;;;;;4938576;29;20644;-90
2022/07/26 03:31:22;;;;;;;740.53;472.60;;;18.60;1.00;;;;;;4938497;29;20240;-90
2022/07/26 03:33:49;;;;;;;744.03;478.57;;;18.70;1.00;;;;;;4940339;29;20565;-91
2022/07/26 03:36:16;;;;;;;740.17;473.87;;;18.70;1.00;;;;;;4938893;29;20268;-90
2022/07/26 03:38:44;;;;;;;728.53;457.23;;;18.70;1.00;;;;;;4938813;29;20232;-90
2022/07/26 03:41:12;;;;;;;735.80;461.63;;;18.60;1.00;;;;;;4926638;29;20729;-91
2022/07/26 03:43:40;;;;;;;738.73;461.33;;;18.60;1.00;;;;;;4939820;29;20715;-90
2022/07/26 03:46:07;;;;;;;723.33;443.33;;;18.60;1.00;;;;;;4936839;29;20197;-90
2022/07/26 03:48:34;;;;;;;732.77;459.33;;;18.60;1.00;;;;;;4933753;29;20230;-91
2022/07/26 03:51:01;;;;;;;725.83;444.77;;;18.50;39.40;;;;;;4935835;29;20224;-91
2022/07/26 03:53:28;;;;;;;730.20;445.10;;;18.50;99.90;;;;;;4939151;29;20232;-91
2022/07/26 03:58:51;;;;;;;746.87;475.30;;;18.50;99.90;;;;;;4937076;29;20210;-93
2022/07/26 04:01:22;;;;;;;744.27;461.37;;;18.50;99.90;;;;;;4941449;28;20668;-93
2022/07/26 04:03:50;;;;;;;748.73;476.47;;;18.40;99.90;;;;;;4939223;29;20286;-90
2022/07/26 04:06:17;;;;;;;750.17;476.00;;;18.40;99.90;;;;;;4940594;29;20268;-90
2022/07/26 04:09:04;;;;;;;752.10;481.40;;;18.40;1.00;;;;;;4940359;29;20264;-92
2022/07/26 04:11:31;;;;;;;750.50;485.00;;;18.50;1.00;;;;;;4927839;29;20239;-92
2022/07/26 04:14:01;;;;;;;742.60;473.93;;;18.50;1.00;;;;;;4939452;29;20255;-92
2022/07/26 04:16:28;;;;;;;732.20;445.47;;;18.50;1.00;;;;;;4942995;29;20219;-94
2022/07/26 04:21:37;;;;;;;728.60;451.70;;;18.60;1.00;;;;;;4938153;29;20209;-90
2022/07/26 04:24:08;;;;;;;738.20;463.23;;;18.60;99.90;;;;;;4941709;29;20202;-92
2022/07/26 04:26:48;;;;;;;731.87;457.33;;;18.60;99.90;;;;;;4943673;29;20557;-93
2022/07/26 04:29:26;;;;;;;729.50;444.10;;;18.50;1.00;;;;;;4930883;29;20319;-92
2022/07/26 04:31:54;;;;;;;736.07;452.37;;;18.60;1.00;;;;;;4939545;29;20324;-90
2022/07/26 04:34:26;;;;;;;730.50;443.17;;;18.50;99.90;;;;;;4943730;29;20208;-92
2022/07/26 04:36:53;;;;;;;747.33;482.20;;;18.60;1.00;;;;;;4925971;29;20209;-90
2022/07/26 04:39:23;;;;;;;729.00;448.57;;;18.60;1.00;;;;;;4940663;29;20209;-90
2022/07/26 04:41:54;;;;;;;728.90;446.63;;;18.60;1.00;;;;;;4942667;28;20283;-92
2022/07/26 04:44:22;;;;;;;730.00;449.07;;;18.70;1.00;;;;;;4937597;29;20571;-92
2022/07/26 04:47:06;;;;;;;735.67;464.97;;;18.80;81.00;;;;;;4938371;28;20237;-92
2022/07/26 04:49:50;;;;;;;736.03;461.27;;;18.90;1.00;;;;;;4939511;29;20215;-92
2022/07/26 04:52:17;;;;;;;698.93;517.07;;;19.10;99.90;;;;;;4937925;29;20615;-90
2022/07/26 04:55:18;;;;;;;725.27;523.87;;;19.30;99.90;;;;;;4941055;29;20260;-93
2022/07/26 04:57:46;;;;;;;731.97;523.27;;;19.50;1.00;;;;;;4926435;29;20259;-89
2022/07/26 05:00:32;;;;;;;694.72;525.55;;;19.60;99.90;;;;;;4938402;29;20229;-92
2022/07/26 05:03:01;;;;;;;717.83;539.93;;;19.80;1.00;;;;;;4936910;29;20212;-91
2022/07/26 05:05:31;;;;;;;710.95;550.47;;;20.00;99.90;;;;;;4939276;29;20565;-91
2022/07/26 05:08:31;;;;;;;749.73;510.40;;;20.20;1.00;;;;;;4940987;29;20227;-92
2022/07/26 05:10:59;;;;;;;718.40;519.60;;;20.30;1.00;;;;;;4941633;29;20228;-90
2022/07/26 05:13:38;;;;;;;728.43;545.57;;;20.40;99.90;;;;;;4939003;29;20201;-91
2022/07/26 05:16:08;;;;;;;645.28;575.50;;;20.60;1.00;;;;;;4937755;29;20232;-91
2022/07/26 05:18:41;;;;;;;729.42;538.75;;;20.70;1.00;;;;;;4938589;29;20292;-93
2022/07/26 05:21:22;;;;;;;654.90;584.92;;;20.70;99.90;;;;;;4938325;29;20204;-91
2022/07/26 05:23:49;;;;;;;683.65;576.47;;;20.90;99.90;;;;;;4932399;29;20221;-90
2022/07/26 05:26:22;;;;;;;645.00;576.95;;;21.10;1.00;;;;;;4932775;29;20683;-92
2022/07/26 05:28:49;;;;;;;;;;;21.20;1.00;;;;;;4939630;29;20121;-90
2022/07/26 05:31:18;;;;;;;697.60;595.42;;;21.30;1.00;;;;;;4937549;29;20345;-90
2022/07/26 05:33:50;;;;;;;671.42;604.90;;;21.40;1.00;;;;;;4937867;29;20194;-91
2022/07/26 05:36:18;;;;;;;711.17;632.88;;;21.60;99.90;;;;;;4938220;29;20204;-89
2022/07/26 05:38:45;;;;;;;706.27;609.47;;;21.80;99.90;;;;;;4939111;29;20204;-90
2022/07/26 05:41:12;;;;;;;635.65;580.60;;;22.00;99.90;;;;;;4929438;29;20211;-91
2022/07/26 05:43:39;;;;;;;666.33;608.35;;;22.20;1.00;;;;;;4938792;29;20263;-89
2022/07/26 05:46:07;;;;;;;701.15;637.25;;;22.40;1.00;;;;;;4938441;29;20212;-90
2022/07/26 05:48:52;;;;;;;700.08;633.03;;;22.40;99.20;;;;;;4938466;29;20313;-92
2022/07/26 05:51:25;;;;;;;752.10;626.45;;;22.50;1.00;;;;;;4937769;29;20205;-93
2022/07/26 05:53:52;;;;;;;701.28;635.95;;;22.50;1.00;;;;;;4936168;29;20224;-90
2022/07/26 05:56:36;;;;;;;781.87;605.20;;;22.50;1.00;;;;;;4939866;29;20215;-93
2022/07/26 05:59:04;;;;;;;616.67;565.05;;;22.60;1.00;;;;;;4942608;29;20232;-91
2022/07/26 06:01:33;;;;;;;739.22;640.20;;;22.70;99.90;;;;;;4939066;29;20335;-90
2022/07/26 06:04:01;;;;;;;679.90;623.88;;;22.80;99.90;;;;;;4936584;29;20620;-89
2022/07/26 06:06:29;;;;;;;740.72;670.15;;;22.90;99.90;;;;;;4937336;29;20640;-89
2022/07/26 06:08:56;;;;;;;739.63;670.65;;;23.10;99.90;;;;;;4935614;29;20396;-89
2022/07/26 06:11:24;;;;;;;738.38;671.90;;;23.30;94.80;;;;;;4932604;29;20279;-89
2022/07/26 06:13:51;;;;;;;733.30;666.60;;;23.30;1.00;;;;;;4935216;29;20596;-90
2022/07/26 06:16:19;;;;;;;657.45;605.10;;;23.40;1.00;;;;;;4939062;29;20201;-87
2022/07/26 06:18:46;;;;;;;698.58;642.28;;;23.60;1.00;;;;;;4928086;29;20200;-87
2022/07/26 06:21:14;;;;;;;744.80;663.92;;;23.70;99.90;;;;;;4944209;29;20201;-88
2022/07/26 06:23:41;;;;;;;441.40;407.98;;;23.70;99.90;;;;;;4944081;29;20269;-91
2022/07/26 06:26:22;;;;;;;617.40;569.20;;;23.70;99.90;;;;;;4927896;29;20204;-90
2022/07/26 06:28:50;;;;;;;666.40;613.22;;;23.70;99.90;;;;;;4945028;29;20220;-88
2022/07/26 06:31:18;;;;;;;734.28;667.15;;;23.80;99.90;;;;;;4951152;29;20201;-86
2022/07/26 06:33:45;;;;;;;655.85;605.33;;;23.80;99.90;;;;;;4942306;29;20189;-89
2022/07/26 06:36:12;;;;;;;749.58;683.50;;;23.90;99.90;;;;;;4944349;29;20193;-89
2022/07/26 06:38:40;;;;;;;770.50;692.35;;;24.10;99.90;;;;;;4939608;29;20216;-86
2022/07/26 06:41:07;;;;;;;776.05;701.00;;;24.60;99.90;;;;;;4932653;29;20205;-91
2022/07/26 06:43:35;;;;;;;789.50;722.00;;;25.00;99.90;;;;;;4942468;29;20248;-88
2022/07/26 06:46:02;;;;;;;809.50;723.40;;;25.30;1.00;;;;;;4943074;29;20103;-88
2022/07/26 06:48:29;;;;;;;828.10;745.38;;;25.70;1.00;;;;;;4944815;29;20221;-88
2022/07/26 06:50:56;;;;;;;839.97;753.42;;;26.30;1.00;;;;;;4940327;29;20185;-87
2022/07/26 06:53:23;;;;;;;836.85;746.95;;;26.50;60.60;;;;;;4939631;29;20252;-86
2022/07/26 06:55:52;;;;;;;855.13;768.78;;;26.50;1.00;;;;;;4941575;29;20197;-89
2022/07/26 06:58:19;;;;;;;867.08;778.60;;;26.70;1.00;;;;;;4940261;29;20201;-89
2022/07/26 07:00:46;;;;;;;874.22;785.28;;;26.70;1.00;;;;;;4938702;29;20597;-88
2022/07/26 07:03:13;;;;;;;864.75;783.00;;;26.50;99.90;;;;;;4941377;28;20180;-88
2022/07/26 07:05:40;;;;;;;867.85;777.20;;;26.00;99.90;;;;;;4937790;29;20658;-88
2022/07/26 07:08:07;;;;;;;875.17;794.75;;;25.60;99.90;;;;;;4937764;29;20213;-88
2022/07/26 07:10:34;;;;;;;863.95;773.42;;;25.80;1.00;;;;;;4939913;29;20227;-90
2022/07/26 07:13:03;;;;;;;860.83;792.58;;;26.20;1.00;;;;;;4938799;29;20593;-86
2022/07/26 07:15:30;;;;;;;876.58;802.97;;;26.70;1.00;;;;;;4937466;29;20200;-88
2022/07/26 07:17:57;;;;;;;;;;;27.10;1.00;;;;;;4939637;29;20209;-90
2022/07/26 07:20:25;;;;;;;882.40;799.83;;;27.40;99.90;;;;;;4939595;29;20187;-87
2022/07/26 07:22:52;;;;;;;881.00;795.95;;;27.20;48.10;;;;;;4936055;29;20288;-88
2022/07/26 07:25:19;;;;;;;874.63;798.17;;;26.90;1.00;;;;;;4937759;29;20280;-87
2022/07/26 07:27:46;;;;;;;901.13;814.15;;;26.80;99.90;;;;;;4940332;29;20202;-88
2022/07/26 07:30:15;;;;;;;877.22;795.08;;;26.80;1.00;;;;;;4930753;29;20217;-86
2022/07/26 07:32:43;;;;;;;884.00;810.72;;;26.80;1.00;;;;;;4924510;29;20229;-86
2022/07/26 07:35:10;;;;;;;;;;;26.70;7.60;;;;;;4937360;29;20196;-84
2022/07/26 07:37:36;;;;;;;;;;;26.70;1.00;;;;;;4937077;29;20431;-85
2022/07/26 07:40:06;;;;;;;849.28;760.13;;;26.50;1.00;;;;;;4936831;29;20027;-86
2022/07/26 07:42:33;;;;;;;860.55;770.40;;;26.70;23.90;;;;;;4936795;29;20197;-87
2022/07/26 07:45:00;;;;;;;871.92;781.50;;;27.10;99.90;;;;;;4936436;29;20202;-86
2022/07/26 07:47:28;;;;;;;911.25;818.95;;;27.80;75.30;;;;;;4936343;29;20198;-86
2022/07/26 07:49:55;;;;;;;895.65;828.22;;;28.50;1.00;;;;;;4935989;29;20267;-86
2022/07/26 07:52:22;;;;;;;896.30;828.58;;;29.00;1.00;;;;;;4936374;29;20204;-86
2022/07/26 07:54:49;;;;;;;922.80;852.90;;;29.20;1.00;;;;;;4936949;29;20204;-86
2022/07/26 07:57:16;;;;;;;921.45;850.90;;;28.90;1.00;;;;;;4936898;29;20555;-85
2022/07/26 07:59:43;;;;;;;;;;;28.40;1.00;;;;;;4937329;29;20249;-86
2022/07/26 08:02:11;;;;;;;959.72;874.25;;;28.00;1.00;;;;;;4937001;29;20187;-88
2022/07/26 08:04:40;;;;;;;933.25;841.22;;;27.90;1.00;;;;;;4936868;29;20220;-87
2022/07/26 08:07:07;;;;;;;929.47;837.20;;;27.70;1.00;;;;;;4937154;29;20193;-84
2022/07/26 08:09:34;;;;;;;872.03;806.40;;;27.30;1.00;;;;;;4936549;29;20697;-86
2022/07/26 08:12:01;;;;;;;;;;;26.90;1.00;;;;;;4936993;29;20071;-86
2022/07/26 08:14:28;;;;;;;908.13;816.63;;;26.50;1.00;;;;;;4936801;29;20191;-85
2022/07/26 08:16:55;;;;;;;893.42;817.60;;;26.30;1.00;;;;;;4940793;29;20187;-85
2022/07/26 08:19:22;;;;;;;815.75;754.80;;;26.50;1.00;;;;;;4937847;29;20213;-88
2022/07/26 08:21:50;;;;;;;897.53;808.80;;;27.00;1.00;;;;;;4936983;29;20200;-86
2022/07/26 08:24:18;;;;;;;889.95;799.47;;;27.70;1.00;;;;;;4919771;29;20252;-86
2022/07/26 08:26:45;;;;;;;920.85;829.47;;;28.10;1.00;;;;;;4936526;29;20213;-87
2022/07/26 08:29:12;;;;;;;941.97;849.15;;;28.80;1.00;;;;;;4936625;29;20232;-86
2022/07/26 08:31:39;;;;;;;951.97;859.60;;;29.00;1.00;;;;;;4936595;29;20288;-88
2022/07/26 08:34:06;;;;;;;955.08;861.47;;;28.80;1.00;;;;;;4936501;29;20197;-88
2022/07/26 08:36:33;;;;;;;960.65;871.63;;;29.10;1.00;;;;;;4937360;29;20197;-85
2022/07/26 08:39:02;;;;;;;973.88;880.15;;;29.40;1.00;;;;;;4935920;29;20204;-86
2022/07/26 08:41:28;;;;;;;;;;;29.90;1.00;;;;;;4937042;29;20442;-86
2022/07/26 08:44:04;;;;;;;997.92;902.80;;;30.50;1.00;;;;;;4935071;29;20217;-87
2022/07/26 08:46:34;;;;;;;1002.20;907.47;;;31.00;1.00;;;;;;4936100;29;20189;-87
2022/07/26 08:49:01;;;;;;;1014.75;919.58;;;31.40;99.90;;;;;;4935666;29;20197;-86
2022/07/26 08:51:28;;;;;;;1020.80;925.90;;;31.30;99.90;;;;;;4936073;29;20201;-85
2022/07/26 08:53:57;;;;;;;1032.40;936.38;;;31.00;99.90;;;;;;4935633;29;20178;-86
2022/07/26 08:56:25;;;;;;;;;;;30.30;99.90;;;;;;4935999;29;20179;-85
2022/07/26 08:58:52;;;;;;;;;;;29.60;99.90;;;;;;4936817;29;19938;-87
2022/07/26 09:01:19;;;;;;;;;;;28.80;99.90;;;;;;4936252;29;19927;-87
2022/07/26 09:03:46;;;;;;;972.20;878.50;;;28.40;99.90;;;;;;4936125;29;20376;-86
2022/07/26 09:06:15;;;;;;;963.45;870.20;;;28.10;99.90;;;;;;4935818;29;20339;-87
2022/07/26 09:08:44;;;;;;;958.00;864.88;;;28.00;99.90;;;;;;4935962;29;20722;-86
2022/07/26 09:11:28;;;;;;;;;;;27.80;99.90;;;;;;4935880;29;20047;-86
2022/07/26 09:13:58;;;;;;;939.42;846.88;;;27.50;99.90;;;;;;4935731;29;20261;-88
2022/07/26 09:16:24;;;;;;;;;;;27.10;99.90;;;;;;4935174;29;20063;-85
2022/07/26 09:18:52;;;;;;;910.42;819.03;;;26.60;99.90;;;;;;4930042;29;20199;-85
2022/07/26 09:21:34;;;;;;;892.00;801.35;;;26.30;99.90;;;;;;4932165;29;20229;-88
2022/07/26 09:24:02;;;;;;;863.83;773.83;;;26.00;99.90;;;;;;4935116;29;20650;-89
2022/07/26 09:26:30;;;;;;;865.33;775.25;;;25.90;99.90;;;;;;4934953;29;20187;-88
2022/07/26 09:29:06;;;;;;;860.55;770.33;;;26.00;99.90;;;;;;4936709;29;20572;-85
2022/07/26 09:31:33;;;;;;;856.78;767.20;;;26.70;99.90;;;;;;4935724;29;20338;-85
2022/07/26 09:34:00;;;;;;;863.45;774.10;;;27.10;99.90;;;;;;4935053;29;20240;-85
2022/07/26 09:36:28;;;;;;;859.67;770.28;;;27.00;99.90;;;;;;4935218;29;20193;-87
2022/07/26 09:38:57;;;;;;;867.47;777.83;;;26.90;99.90;;;;;;4934726;29;20205;-85
2022/07/26 09:41:26;;;;;;;869.58;779.92;;;26.80;99.90;;;;;;4936451;29;20197;-85
2022/07/26 09:43:57;;;;;;;857.00;767.58;;;26.80;99.90;;;;;;4934906;29;20193;-85
2022/07/26 09:46:24;;;;;;;;;;;27.00;99.90;;;;;;4935165;29;20702;-85
2022/07/26 09:48:51;;;;;;;;;;;27.20;99.90;;;;;;4935494;29;20038;-84
2022/07/26 09:51:33;;;;;;;;;;;27.30;99.90;;;;;;4935398;29;20386;-85
2022/07/26 09:54:00;;;;;;;;;;;27.20;99.90;;;;;;4935002;29;20265;-85
2022/07/26 09:56:41;;;;;;;;;;;26.80;99.90;;;;;;4935301;29;20040;-85
2022/07/26 09:59:09;;;;;;;;;;;26.30;99.90;;;;;;4935358;29;19964;-85
2022/07/26 10:01:36;;;;;;;843.63;754.63;;;25.90;99.90;;;;;;4934636;29;20058;-84
2022/07/26 10:04:03;;;;;;;845.35;756.30;;;25.70;99.90;;;;;;4934916;29;20197;-84
2022/07/26 10:06:31;;;;;;;821.45;733.08;;;25.60;99.90;;;;;;4934333;29;20661;-84
2022/07/26 10:08:59;;;;;;;816.67;728.53;;;25.60;99.90;;;;;;4934722;29;20201;-84
2022/07/26 10:11:29;;;;;;;806.88;719.40;;;25.60;99.90;;;;;;4934619;29;20220;-86
2022/07/26 10:13:56;;;;;;;805.13;717.38;;;25.90;99.90;;;;;;4934946;29;20193;-87
2022/07/26 10:16:31;;;;;;;820.65;732.55;;;26.20;99.90;;;;;;4934624;29;20197;-84
2022/07/26 10:19:01;;;;;;;812.03;724.47;;;26.60;99.90;;;;;;4934458;29;20646;-86
2022/07/26 10:21:29;;;;;;;838.65;750.33;;;26.80;99.90;;;;;;4934555;29;20201;-86
2022/07/26 10:23:59;;;;;;;811.47;724.22;;;27.10;99.90;;;;;;4934710;29;20264;-86
2022/07/26 10:26:39;;;;;;;849.88;760.92;;;27.40;99.90;;;;;;4934607;29;20284;-85
2022/07/26 10:29:28;;;;;;;848.45;759.50;;;27.80;99.90;;;;;;4934653;29;20296;-85
2022/07/26 10:32:17;;;;;;;845.33;757.05;;;28.10;99.90;;;;;;4931268;29;20240;-86
2022/07/26 10:34:45;;;;;;;858.15;769.70;;;28.40;99.90;;;;;;4925059;29;20197;-86
2022/07/26 10:37:22;;;;;;;871.88;782.63;;;28.70;99.90;;;;;;4934394;29;20256;-86
2022/07/26 10:40:09;;;;;;;869.83;780.72;;;28.90;99.90;;;;;;4934323;29;20562;-87
2022/07/26 10:42:44;;;;;;;883.92;794.67;;;28.90;99.90;;;;;;4933950;29;20197;-85
2022/07/26 10:45:18;;;;;;;899.53;808.55;;;28.80;99.90;;;;;;4934632;29;20236;-85
2022/07/26 10:48:12;;;;;;;879.53;790.55;;;28.80;99.90;;;;;;4934614;29;20186;-85
2022/07/26 10:50:39;;;;;;;883.83;794.47;;;28.80;99.90;;;;;;4934489;29;20241;-86
2022/07/26 10:53:08;;;;;;;875.45;786.33;;;28.70;99.90;;;;;;4934265;29;20606;-85
2022/07/26 10:55:45;;;;;;;882.47;793.28;;;28.80;99.90;;;;;;4934598;29;20197;-85
2022/07/26 10:58:13;;;;;;;885.55;796.47;;;28.90;99.90;;;;;;4921593;29;20273;-88
2022/07/26 11:00:40;;;;;;;889.67;800.63;;;28.90;99.90;;;;;;4934470;29;20541;-85
2022/07/26 11:03:07;;;;;;;888.08;799.17;;;29.00;99.90;;;;;;4934353;29;20193;-85
2022/07/26 11:05:36;;;;;;;914.00;823.45;;;29.10;99.90;;;;;;4936448;29;20197;-89
2022/07/26 11:08:07;;;;;;;879.45;791.03;;;28.90;99.90;;;;;;4937445;29;20204;-87
2022/07/26 11:10:36;;;;;;;882.72;794.15;;;28.50;99.90;;;;;;4938254;29;20331;-87
2022/07/26 11:13:06;;;;;;;910.22;820.58;;;28.30;99.90;;;;;;4936114;29;20204;-84
2022/07/26 11:15:35;;;;;;;900.72;811.47;;;28.30;99.90;;;;;;4937387;29;20200;-85
2022/07/26 11:18:12;;;;;;;897.33;808.15;;;28.20;99.90;;;;;;4936007;29;20212;-85
2022/07/26 11:20:42;;;;;;;887.55;799.00;;;28.20;99.90;;;;;;4930183;29;20209;-84
2022/07/26 11:23:29;;;;;;;906.75;816.20;;;28.10;99.90;;;;;;4934944;29;20216;-85
2022/07/26 11:26:13;;;;;;;920.63;829.38;;;28.10;99.90;;;;;;4920329;29;20248;-87
2022/07/26 11:28:57;;;;;;;904.70;817.78;;;28.20;99.90;;;;;;4935770;29;20204;-87
2022/07/26 11:31:33;;;;;;;930.63;839.05;;;28.20;99.90;;;;;;4936628;29;20291;-86
2022/07/26 11:34:00;;;;;;;911.65;820.92;;;27.90;99.90;;;;;;4936677;29;20192;-87
2022/07/26 11:36:37;;;;;;;918.60;835.65;;;27.60;99.90;;;;;;4937192;29;20197;-86
2022/07/26 11:39:07;;;;;;;913.60;826.90;;;27.40;99.90;;;;;;4936808;29;20820;-87
2022/07/26 11:41:34;;;;;;;912.08;826.45;;;27.30;99.90;;;;;;4938286;29;20205;-87
2022/07/26 11:44:01;;;;;;;906.72;822.35;;;27.30;99.90;;;;;;4936911;29;20261;-87
2022/07/26 11:46:45;;;;;;;882.55;793.00;;;27.40;99.90;;;;;;4937033;29;20240;-87
2022/07/26 11:49:15;;;;;;;870.92;782.08;;;27.70;99.90;;;;;;4937143;29;20540;-86
2022/07/26 11:51:51;;;;;;;904.38;829.53;;;27.80;99.90;;;;;;4924080;29;20233;-86
2022/07/26 11:54:19;;;;;;;891.50;802.03;;;27.90;99.90;;;;;;4935840;29;20566;-85
2022/07/26 11:56:54;;;;;;;884.70;796.60;;;28.10;99.90;;;;;;4939885;29;20193;-89
2022/07/26 11:59:22;;;;;;;886.40;797.08;;;28.10;99.90;;;;;;4937047;29;20280;-87
2022/07/26 12:01:49;;;;;;;876.00;787.50;;;28.10;99.90;;;;;;4934394;29;20260;-87
2022/07/26 12:04:22;;;;;;;889.05;801.05;;;28.10;99.90;;;;;;4933370;29;20201;-88
2022/07/26 12:06:50;;;;;;;879.67;789.55;;;28.00;99.90;;;;;;4936854;29;20669;-90
2022/07/26 12:09:33;;;;;;;891.83;801.58;;;28.00;99.90;;;;;;4937051;29;20287;-88
2022/07/26 12:12:01;;;;;;;906.38;821.80;;;28.00;99.90;;;;;;4936415;29;20239;-87
2022/07/26 12:14:29;;;;;;;913.92;830.03;;;28.10;99.90;;;;;;4936243;29;20200;-87
2022/07/26 12:16:57;;;;;;;890.35;801.17;;;28.20;99.90;;;;;;4933336;29;20208;-87
2022/07/26 12:19:27;;;;;;;907.92;817.42;;;28.40;99.90;;;;;;4922401;29;20194;-88
2022/07/26 12:21:59;;;;;;;912.67;821.47;;;28.60;99.90;;;;;;4934092;29;20209;-85
2022/07/26 12:24:44;;;;;;;929.25;837.45;;;28.70;99.90;;;;;;4936211;29;20581;-86
2022/07/26 12:27:15;;;;;;;910.03;819.15;;;28.80;99.90;;;;;;4935836;29;20193;-85
2022/07/26 12:29:43;;;;;;;930.33;838.58;;;28.80;99.90;;;;;;4935890;29;20594;-86
2022/07/26 12:32:13;;;;;;;937.25;845.03;;;28.70;99.90;;;;;;4932339;29;20677;-85
2022/07/26 12:34:42;;;;;;;896.67;807.15;;;28.80;99.90;;;;;;4921442;29;20677;-86
2022/07/26 12:37:16;;;;;;;925.88;834.17;;;29.00;99.90;;;;;;4933959;29;20268;-87